createdAt,value
2023-03-29T00:00:51.052Z,2.01
2023-03-29T00:03:54.192Z,1.88
2023-03-29T00:06:57.921Z,1.89
2023-03-29T00:09:59.818Z,1.93
2023-03-29T00:13:02.652Z,1.93
2023-03-29T00:16:04.927Z,1.86
2023-03-29T00:19:07.560Z,1.80
2023-03-29T00:22:11.208Z,1.74
2023-03-29T00:25:14.247Z,1.69
2023-03-29T00:28:16.081Z,1.70
2023-03-29T00:31:19.247Z,1.68
2023-03-29T00:34:21.577Z,1.85
2023-03-29T00:37:30.058Z,1.90
2023-03-29T00:40:32.111Z,2.04
2023-03-29T00:43:56.726Z,1.90
2023-03-29T00:46:58.654Z,2.01
2023-03-29T00:50:06.997Z,1.92
2023-03-29T00:53:13.190Z,2.05
2023-03-29T00:56:20.090Z,1.86
2023-03-29T00:59:28.236Z,2.04
2023-03-29T01:02:35.052Z,1.94
2023-03-29T01:05:40.744Z,1.70
2023-03-29T01:08:50.311Z,1.92
2023-03-29T01:11:55.735Z,1.94
2023-03-29T01:15:02.402Z,1.95
2023-03-29T01:18:04.685Z,1.90
2023-03-29T01:21:17.227Z,1.92
2023-03-29T01:24:47.662Z,1.96
2023-03-29T01:27:55.085Z,1.84
2023-03-29T01:31:03.871Z,1.87
2023-03-29T01:34:10.657Z,1.92
2023-03-29T01:37:18.065Z,1.90
2023-03-29T01:40:20.070Z,1.84
2023-03-29T01:43:28.119Z,1.74
2023-03-29T01:46:35.162Z,1.62
2023-03-29T01:49:42.270Z,1.68
2023-03-29T01:52:51.488Z,1.75
2023-03-29T01:55:56.462Z,1.82
2023-03-29T01:59:04.145Z,1.72
2023-03-29T02:02:11.682Z,1.76
2023-03-29T02:05:16.795Z,1.75
2023-03-29T02:08:21.479Z,1.70
2023-03-29T02:11:24.955Z,1.82
2023-03-29T02:14:30.470Z,1.80
2023-03-29T02:17:32.684Z,1.75
2023-03-29T02:20:39.455Z,1.72
2023-03-29T02:23:45.891Z,1.57
2023-03-29T02:26:48.905Z,1.58
2023-03-29T02:29:52.290Z,1.49
2023-03-29T02:32:59.684Z,1.45
2023-03-29T02:36:08.159Z,1.46
2023-03-29T02:39:15.642Z,1.53
2023-03-29T02:42:20.582Z,1.41
2023-03-29T02:45:25.717Z,1.50
2023-03-29T02:48:30.152Z,1.44
2023-03-29T02:51:35.526Z,1.41
2023-03-29T02:54:43.601Z,1.25
2023-03-29T02:57:45.603Z,1.52
2023-03-29T03:00:49.409Z,1.34
2023-03-29T03:03:51.970Z,1.04
2023-03-29T03:06:54.307Z,1.24
2023-03-29T03:09:56.648Z,1.20
2023-03-29T03:12:59.241Z,1.17
2023-03-29T03:16:03.292Z,1.28
2023-03-29T03:19:05.327Z,1.35
2023-03-29T03:22:10.017Z,1.33
2023-03-29T03:25:12.087Z,1.32
2023-03-29T03:28:14.083Z,1.24
2023-03-29T03:31:17.702Z,1.23
2023-03-29T03:34:19.649Z,1.23
2023-03-29T03:37:22.647Z,1.31
2023-03-29T03:40:26.565Z,1.44
2023-03-29T03:43:30.056Z,1.43
2023-03-29T03:46:33.303Z,1.65
2023-03-29T03:49:35.581Z,2.01
2023-03-29T03:52:37.966Z,2.22
2023-03-29T03:55:39.820Z,2.43
2023-03-29T03:58:42.301Z,2.33
2023-03-29T04:01:45.558Z,2.54
2023-03-29T04:04:47.740Z,2.73
2023-03-29T04:07:50.076Z,2.73
2023-03-29T04:10:53.353Z,2.80
2023-03-29T04:13:57.727Z,2.75
2023-03-29T04:17:01.497Z,2.92
2023-03-29T04:20:10.353Z,2.95
2023-03-29T04:23:12.467Z,3.03
2023-03-29T04:26:14.880Z,3.07
2023-03-29T04:29:16.992Z,2.99
2023-03-29T04:32:20.860Z,3.02
2023-03-29T04:35:22.783Z,3.01
2023-03-29T04:38:24.888Z,3.17
2023-03-29T04:41:27.445Z,3.09
2023-03-29T04:44:30.066Z,3.25
2023-03-29T04:47:36.321Z,3.40
2023-03-29T04:50:38.153Z,3.48
2023-03-29T04:53:40.783Z,3.52
2023-03-29T04:56:42.699Z,3.62
2023-03-29T04:59:44.795Z,3.74
2023-03-29T05:02:48.288Z,3.88
2023-03-29T05:05:50.843Z,3.96
2023-03-29T05:08:52.864Z,4.07
2023-03-29T05:11:54.766Z,4.08
2023-03-29T05:14:57.445Z,4.00
2023-03-29T05:18:00.935Z,3.95
2023-03-29T05:21:04.657Z,4.01
2023-03-29T05:24:07.026Z,3.94
2023-03-29T05:27:10.041Z,3.90
2023-03-29T05:30:13.393Z,3.94
2023-03-29T05:33:17.666Z,4.00
2023-03-29T05:36:19.878Z,3.90
2023-03-29T05:39:23.530Z,4.00
2023-03-29T05:42:25.421Z,4.04
2023-03-29T05:45:29.853Z,4.06
2023-03-29T05:48:33.620Z,4.09
2023-03-29T05:51:35.728Z,4.16
2023-03-29T05:54:37.598Z,4.13
2023-03-29T05:57:39.627Z,4.20
2023-03-29T06:00:42.924Z,4.32
2023-03-29T06:03:47.425Z,1.80
2023-03-29T06:06:49.621Z,1.26
2023-03-29T06:09:51.520Z,0.89
2023-03-29T06:12:53.738Z,1.29
2023-03-29T06:15:55.736Z,1.60
2023-03-29T06:18:59.375Z,1.89
2023-03-29T06:22:01.546Z,1.91
2023-03-29T06:25:04.297Z,1.98
2023-03-29T06:28:06.181Z,2.00
2023-03-29T06:31:10.228Z,2.20
2023-03-29T06:34:13.939Z,3.23
2023-03-29T06:37:16.676Z,4.05
2023-03-29T06:40:19.299Z,4.63
2023-03-29T06:43:21.775Z,5.01
2023-03-29T06:46:23.782Z,5.15
2023-03-29T06:49:27.494Z,5.37
2023-03-29T06:52:29.712Z,5.50
2023-03-29T06:55:32.152Z,5.57
2023-03-29T06:58:34.419Z,5.63
2023-03-29T07:01:37.509Z,5.72
2023-03-29T07:04:41.998Z,3.99
2023-03-29T07:08:00.368Z,3.67
2023-03-29T07:11:03.595Z,3.73
2023-03-29T07:14:05.740Z,3.64
2023-03-29T07:17:07.580Z,3.62
2023-03-29T07:20:14.329Z,3.56
2023-03-29T07:23:16.187Z,3.67
2023-03-29T07:26:28.982Z,3.76
2023-03-29T07:29:31.914Z,3.90
2023-03-29T07:32:34.459Z,3.79
2023-03-29T07:35:39.872Z,4.04
2023-03-29T07:38:41.837Z,3.96
2023-03-29T07:41:44.380Z,4.24
2023-03-29T07:44:46.226Z,4.64
2023-03-29T07:47:49.291Z,4.82
2023-03-29T07:50:52.734Z,4.79
2023-03-29T07:53:55.522Z,5.06
2023-03-29T07:56:57.679Z,4.92
2023-03-29T07:59:59.677Z,4.97
2023-03-29T08:03:03.918Z,4.85
2023-03-29T08:06:07.790Z,4.82
2023-03-29T08:09:10.294Z,4.75
2023-03-29T08:12:12.707Z,4.72
2023-03-29T08:15:16.441Z,4.75
2023-03-29T08:18:18.359Z,4.60
2023-03-29T08:21:21.608Z,4.67
2023-03-29T08:24:23.547Z,4.60
2023-03-29T08:27:26.024Z,4.76
2023-03-29T08:30:28.283Z,4.85
2023-03-29T08:33:30.291Z,4.77
2023-03-29T08:36:33.702Z,5.03
2023-03-29T08:39:36.019Z,5.04
2023-03-29T08:42:55.365Z,5.16
2023-03-29T08:46:09.032Z,5.23
2023-03-29T08:49:12.494Z,5.57
2023-03-29T08:52:23.989Z,5.52
2023-03-29T08:55:33.341Z,5.40
2023-03-29T08:58:37.783Z,5.80
2023-03-29T09:01:40.375Z,5.61
2023-03-29T09:04:42.659Z,5.88
2023-03-29T09:07:46.921Z,5.95
2023-03-29T09:11:04.934Z,6.51
2023-03-29T09:14:24.958Z,6.27
2023-03-29T09:17:42.612Z,6.07
2023-03-29T09:20:53.667Z,6.57
2023-03-29T09:24:15.677Z,6.25
2023-03-29T09:27:24.071Z,6.65
2023-03-29T09:30:29.521Z,6.74
2023-03-29T09:33:42.844Z,6.44
2023-03-29T09:36:52.521Z,6.97
2023-03-29T09:39:57.727Z,7.39
2023-03-29T09:43:02.360Z,7.28
2023-03-29T09:46:11.146Z,7.29
2023-03-29T09:49:17.704Z,7.26
2023-03-29T09:52:21.040Z,6.99
2023-03-29T09:55:28.500Z,7.16
2023-03-29T09:58:34.351Z,7.40
2023-03-29T10:01:38.833Z,6.82
2023-03-29T10:04:43.029Z,7.32
2023-03-29T10:07:47.291Z,7.25
2023-03-29T10:10:51.161Z,7.56
2023-03-29T10:13:57.509Z,8.32
2023-03-29T10:16:59.759Z,8.57
2023-03-29T10:20:04.661Z,8.69
2023-03-29T10:23:08.217Z,8.15
2023-03-29T10:26:23.016Z,8.08
2023-03-29T10:29:26.501Z,8.24
2023-03-29T10:32:33.686Z,8.43
2023-03-29T10:35:40.368Z,7.67
2023-03-29T10:38:44.271Z,8.45
2023-03-29T10:41:51.208Z,8.95
2023-03-29T10:44:56.120Z,8.88
2023-03-29T10:47:59.130Z,8.33
2023-03-29T10:51:02.857Z,8.66
2023-03-29T10:54:13.324Z,8.19
2023-03-29T10:57:26.521Z,9.08
2023-03-29T11:00:37.224Z,8.84
2023-03-29T11:03:55.954Z,8.74
2023-03-29T11:07:22.794Z,8.54
2023-03-29T11:10:37.404Z,9.15
2023-03-29T11:13:49.809Z,9.25
2023-03-29T11:16:58.295Z,9.26
2023-03-29T11:20:12.587Z,9.54
2023-03-29T11:23:29.854Z,8.74
2023-03-29T11:26:41.185Z,9.26
2023-03-29T11:29:58.706Z,9.77
2023-03-29T11:33:14.386Z,9.49
2023-03-29T11:36:20.906Z,10.28
2023-03-29T11:39:34.291Z,9.38
2023-03-29T11:42:41.932Z,9.69
2023-03-29T11:45:51.468Z,9.46
2023-03-29T11:49:00.493Z,9.00
2023-03-29T11:52:10.517Z,9.49
2023-03-29T11:55:18.183Z,9.65
2023-03-29T11:58:23.288Z,9.68
2023-03-29T12:01:31.564Z,9.25
2023-03-29T12:04:38.788Z,9.05
2023-03-29T12:07:47.567Z,9.61
2023-03-29T12:10:55.900Z,9.73
2023-03-29T12:14:03.761Z,9.28
2023-03-29T12:17:12.653Z,9.28
2023-03-29T12:20:19.488Z,9.74
2023-03-29T12:23:22.647Z,10.08
2023-03-29T12:26:45.633Z,10.13
2023-03-29T12:30:20.307Z,9.73
2023-03-29T12:33:44.202Z,9.61
2023-03-29T12:37:03.561Z,9.66
2023-03-29T12:40:13.274Z,9.23
2023-03-29T12:43:23.331Z,9.55
2023-03-29T12:46:27.658Z,9.75
2023-03-29T12:49:35.989Z,9.99
2023-03-29T12:52:42.097Z,9.74
2023-03-29T12:55:49.888Z,9.93
2023-03-29T12:59:17.902Z,10.24
2023-03-29T13:02:27.399Z,9.84
2023-03-29T13:05:34.120Z,9.92
2023-03-29T13:08:38.884Z,9.66
2023-03-29T13:11:41.452Z,10.87
2023-03-29T13:14:45.309Z,10.14
2023-03-29T13:17:57.129Z,9.82
2023-03-29T13:21:10.086Z,9.85
2023-03-29T13:24:29.047Z,9.65
2023-03-29T13:27:39.799Z,9.80
2023-03-29T13:30:57.061Z,9.76
2023-03-29T13:34:05.542Z,10.10
2023-03-29T13:37:22.976Z,9.96
2023-03-29T13:40:33.237Z,10.08
2023-03-29T13:43:37.799Z,10.40
2023-03-29T13:46:42.516Z,10.52
2023-03-29T13:49:54.944Z,10.25
2023-03-29T13:53:01.531Z,10.36
2023-03-29T13:56:06.295Z,10.44
2023-03-29T13:59:13.563Z,10.85
2023-03-29T14:02:22.848Z,10.75
2023-03-29T14:05:30.893Z,10.66
2023-03-29T14:08:39.732Z,10.32
2023-03-29T14:11:45.827Z,9.96
2023-03-29T14:14:58.726Z,10.18
2023-03-29T14:18:01.630Z,10.05
2023-03-29T14:21:04.498Z,9.91
2023-03-29T14:24:12.868Z,9.88
2023-03-29T14:27:15.906Z,9.92
2023-03-29T14:30:21.993Z,10.00
2023-03-29T14:33:28.454Z,10.20
2023-03-29T14:36:33.389Z,10.23
2023-03-29T14:39:37.639Z,10.33
2023-03-29T14:42:41.216Z,10.33
2023-03-29T14:45:44.001Z,10.30
2023-03-29T14:48:46.605Z,10.14
2023-03-29T14:51:50.554Z,10.07
2023-03-29T14:54:56.940Z,10.04
2023-03-29T14:58:00.354Z,9.77
2023-03-29T15:01:05.377Z,10.07
2023-03-29T15:04:10.334Z,10.12
2023-03-29T15:07:13.314Z,10.12
2023-03-29T15:10:19.124Z,10.16
2023-03-29T15:13:26.120Z,10.04
2023-03-29T15:16:30.589Z,9.94
2023-03-29T15:19:33.199Z,9.97
2023-03-29T15:22:35.302Z,10.02
2023-03-29T15:25:47.732Z,10.04
2023-03-29T15:28:55.785Z,9.83
2023-03-29T15:31:59.248Z,9.89
2023-03-29T15:35:05.057Z,9.97
2023-03-29T15:38:07.220Z,9.68
2023-03-29T15:41:10.685Z,9.67
2023-03-29T15:44:17.605Z,9.72
2023-03-29T15:47:20.287Z,9.81
2023-03-29T15:50:23.625Z,9.77
2023-03-29T15:53:25.564Z,9.62
2023-03-29T15:56:32.120Z,9.57
2023-03-29T15:59:34.313Z,9.59
2023-03-29T16:02:36.418Z,9.50
2023-03-29T16:05:39.105Z,9.39
2023-03-29T16:08:41.935Z,9.46
2023-03-29T16:11:46.244Z,9.40
2023-03-29T16:14:48.100Z,9.37
2023-03-29T16:17:50.030Z,9.34
2023-03-29T16:20:52.107Z,9.36
2023-03-29T16:23:53.998Z,9.34
2023-03-29T16:26:58.419Z,9.35
2023-03-29T16:30:00.512Z,9.36
2023-03-29T16:33:06.285Z,9.05
2023-03-29T16:36:09.542Z,9.21
2023-03-29T16:39:13.503Z,8.84
2023-03-29T16:42:17.527Z,9.11
2023-03-29T16:45:19.944Z,9.00
2023-03-29T16:48:22.270Z,9.03
2023-03-29T16:51:25.857Z,9.07
2023-03-29T16:54:29.749Z,9.00
2023-03-29T16:57:33.615Z,8.93
2023-03-29T17:00:35.521Z,8.94
2023-03-29T17:03:37.712Z,8.75
2023-03-29T17:06:40.046Z,8.75
2023-03-29T17:09:42.642Z,8.86
2023-03-29T17:12:48.086Z,8.91
2023-03-29T17:15:53.691Z,8.87
2023-03-29T17:19:00.693Z,8.93
2023-03-29T17:22:02.993Z,8.84
2023-03-29T17:25:07.396Z,8.42
2023-03-29T17:28:11.575Z,8.63
2023-03-29T17:31:14.254Z,8.65
2023-03-29T17:34:20.102Z,8.59
2023-03-29T17:37:23.249Z,8.71
2023-03-29T17:40:27.203Z,8.67
2023-03-29T17:43:31.509Z,8.65
2023-03-29T17:46:33.922Z,8.64
2023-03-29T17:49:38.029Z,8.61
2023-03-29T17:52:40.540Z,8.53
2023-03-29T17:55:43.547Z,8.44
2023-03-29T17:58:49.142Z,8.30
2023-03-29T18:01:51.939Z,8.51
2023-03-29T18:04:54.360Z,8.54
2023-03-29T18:07:57.078Z,8.49
2023-03-29T18:11:07.013Z,8.43
2023-03-29T18:14:10.988Z,8.27
2023-03-29T18:17:13.372Z,8.39
2023-03-29T18:20:17.456Z,8.23
2023-03-29T18:23:19.850Z,8.21
2023-03-29T18:26:23.971Z,8.24
2023-03-29T18:29:50.732Z,8.21
2023-03-29T18:32:53.790Z,8.16
2023-03-29T18:35:58.119Z,8.15
2023-03-29T18:39:06.335Z,8.12
2023-03-29T18:42:10.913Z,8.01
2023-03-29T18:45:18.154Z,8.04
2023-03-29T18:48:20.789Z,7.93
2023-03-29T18:51:26.252Z,7.97
2023-03-29T18:54:29.629Z,7.94
2023-03-29T18:57:32.377Z,7.83
2023-03-29T19:00:37.350Z,7.89
2023-03-29T19:03:40.894Z,7.92
2023-03-29T19:06:44.306Z,7.88
2023-03-29T19:09:47.629Z,7.89
2023-03-29T19:12:50.835Z,7.85
2023-03-29T19:15:57.395Z,7.79
2023-03-29T19:19:01.429Z,7.75
2023-03-29T19:22:04.992Z,7.70
2023-03-29T19:25:09.549Z,7.70
2023-03-29T19:28:13.665Z,7.80
2023-03-29T19:31:19.721Z,7.75
2023-03-29T19:34:25.128Z,7.73
2023-03-29T19:37:28.456Z,7.69
2023-03-29T19:40:31.580Z,7.70
2023-03-29T19:43:36.255Z,7.71
2023-03-29T19:46:40.424Z,7.71
2023-03-29T19:49:43.411Z,7.73
2023-03-29T19:52:46.554Z,7.75
2023-03-29T19:55:50.864Z,7.68
2023-03-29T19:58:53.768Z,7.63
2023-03-29T20:01:57.384Z,7.86
2023-03-29T20:04:59.755Z,8.47
2023-03-29T20:08:02.124Z,8.91
2023-03-29T20:11:08.547Z,9.15
2023-03-29T20:14:12.339Z,9.23
2023-03-29T20:17:15.905Z,9.03
2023-03-29T20:20:19.109Z,8.74
2023-03-29T20:23:20.996Z,8.62
2023-03-29T20:26:23.553Z,8.53
2023-03-29T20:29:25.830Z,8.59
2023-03-29T20:32:30.124Z,8.73
2023-03-29T20:35:32.423Z,8.77
2023-03-29T20:38:35.468Z,8.75
2023-03-29T20:41:38.348Z,8.64
2023-03-29T20:44:40.432Z,8.62
2023-03-29T20:47:50.543Z,8.55
2023-03-29T20:50:52.573Z,8.69
2023-03-29T20:54:02.355Z,8.66
2023-03-29T20:57:04.911Z,8.63
2023-03-29T21:00:12.166Z,8.10
2023-03-29T21:03:15.691Z,7.79
2023-03-29T21:06:19.346Z,7.76
2023-03-29T21:09:23.582Z,7.86
2023-03-29T21:12:26.642Z,7.98
2023-03-29T21:15:30.571Z,7.80
2023-03-29T21:18:36.329Z,7.74
2023-03-29T21:21:38.171Z,7.71
2023-03-29T21:24:40.607Z,7.90
2023-03-29T21:27:42.764Z,7.88
2023-03-29T21:30:44.645Z,7.77
2023-03-29T21:33:48.641Z,7.76
2023-03-29T21:36:50.714Z,7.79
2023-03-29T21:39:53.312Z,7.74
2023-03-29T21:42:55.352Z,7.68
2023-03-29T21:45:57.806Z,7.61
2023-03-29T21:49:01.574Z,7.69
2023-03-29T21:52:03.399Z,7.77
2023-03-29T21:55:06.861Z,7.71
2023-03-29T21:58:08.788Z,7.65
2023-03-29T22:01:11.037Z,7.74
2023-03-29T22:04:22.516Z,7.67
2023-03-29T22:07:31.304Z,7.63
2023-03-29T22:10:33.205Z,7.53
2023-03-29T22:13:35.305Z,7.62
2023-03-29T22:16:37.539Z,7.57
2023-03-29T22:19:41.836Z,7.47
2023-03-29T22:22:46.503Z,7.39
2023-03-29T22:25:48.411Z,7.21
2023-03-29T22:28:51.799Z,7.44
2023-03-29T22:31:53.786Z,7.55
2023-03-29T22:34:57.066Z,7.47
2023-03-29T22:37:59.147Z,7.38
2023-03-29T22:41:01.641Z,7.34
2023-03-29T22:44:04.225Z,7.34
2023-03-29T22:47:06.261Z,7.31
2023-03-29T22:50:10.834Z,7.40
2023-03-29T22:53:13.536Z,7.30
2023-03-29T22:56:16.119Z,7.36
2023-03-29T22:59:18.041Z,7.34
2023-03-29T23:02:20.008Z,7.34
2023-03-29T23:05:23.396Z,7.23
2023-03-29T23:08:26.342Z,7.18
2023-03-29T23:11:28.207Z,7.15
2023-03-29T23:14:31.162Z,7.18
2023-03-29T23:17:33.088Z,7.07
2023-03-29T23:20:36.760Z,7.16
2023-03-29T23:23:39.217Z,7.13
2023-03-29T23:26:41.053Z,7.09
2023-03-29T23:29:45.350Z,7.03
2023-03-29T23:32:47.997Z,6.82
2023-03-29T23:35:51.460Z,7.05
2023-03-29T23:38:54.142Z,7.10
2023-03-29T23:41:56.787Z,7.16
2023-03-29T23:44:59.181Z,7.14
2023-03-29T23:48:01.283Z,7.14
2023-03-29T23:51:05.699Z,7.08
2023-03-29T23:54:08.150Z,7.18
2023-03-29T23:57:10.954Z,7.23
